createdAt,value
2023-01-01T00:00:33.847Z,17.01
2023-01-01T00:01:31.994Z,16.95
2023-01-01T00:02:36.760Z,16.91
2023-01-01T00:03:32.893Z,16.77
2023-01-01T00:04:32.269Z,16.76
2023-01-01T00:05:32.408Z,16.70
2023-01-01T00:06:32.501Z,16.62
2023-01-01T00:07:31.720Z,16.62
2023-01-01T00:08:31.705Z,16.54
2023-01-01T00:09:31.697Z,16.55
2023-01-01T00:10:31.900Z,16.54
2023-01-01T00:11:32.627Z,16.76
2023-01-01T00:12:31.698Z,16.79
2023-01-01T00:13:36.733Z,16.80
2023-01-01T00:14:34.164Z,16.69
2023-01-01T00:16:08.574Z,16.55
2023-01-01T00:16:32.825Z,16.54
2023-01-01T00:17:34.953Z,16.59
2023-01-01T00:18:32.751Z,16.58
2023-01-01T00:19:33.955Z,16.70
2023-01-01T00:20:35.578Z,16.77
2023-01-01T00:21:33.240Z,16.84
2023-01-01T00:22:53.781Z,16.95
2023-01-01T00:23:32.798Z,16.79
2023-01-01T00:24:33.988Z,16.76
2023-01-01T00:25:32.806Z,16.67
2023-01-01T00:26:35.237Z,16.55
2023-01-01T00:27:32.553Z,16.64
2023-01-01T00:28:31.600Z,16.76
2023-01-01T00:29:31.593Z,16.79
2023-01-01T00:30:31.920Z,16.65
2023-01-01T00:31:35.142Z,16.59
2023-01-01T00:32:31.994Z,16.64
2023-01-01T00:33:32.690Z,16.79
2023-01-01T00:34:35.579Z,16.67
2023-01-01T00:35:34.617Z,16.59
2023-01-01T00:36:34.778Z,16.58
2023-01-01T00:37:34.407Z,16.72
2023-01-01T00:38:54.673Z,16.70
2023-01-01T00:39:31.683Z,16.67
2023-01-01T00:40:34.660Z,16.47
2023-01-01T00:41:31.507Z,16.61
2023-01-01T00:42:32.771Z,16.57
2023-01-01T00:43:32.449Z,16.51
2023-01-01T00:44:31.624Z,16.58
2023-01-01T00:45:32.513Z,16.54
2023-01-01T00:46:31.466Z,16.65
2023-01-01T00:47:31.283Z,16.69
2023-01-01T00:48:31.273Z,16.62
2023-01-01T00:49:31.262Z,16.61
2023-01-01T00:50:31.309Z,16.46
2023-01-01T00:51:36.696Z,16.49
2023-01-01T00:52:32.309Z,16.40
2023-01-01T00:53:31.240Z,16.47
2023-01-01T00:54:31.245Z,16.49
2023-01-01T00:55:31.196Z,16.55
2023-01-01T00:56:31.212Z,16.62
2023-01-01T00:57:31.219Z,16.58
2023-01-01T00:58:36.593Z,16.58
2023-01-01T00:59:31.153Z,16.58
2023-01-01T01:00:31.146Z,16.62
2023-01-01T01:01:31.323Z,16.52
2023-01-01T01:02:31.307Z,16.64
2023-01-01T01:03:31.231Z,16.84
2023-01-01T01:04:31.118Z,16.82
2023-01-01T01:05:31.111Z,16.69
2023-01-01T01:06:31.096Z,16.69
2023-01-01T01:07:31.079Z,16.70
2023-01-01T01:08:31.562Z,16.69
2023-01-01T01:09:31.049Z,16.80
2023-01-01T01:10:31.080Z,16.79
2023-01-01T01:11:31.034Z,16.74
2023-01-01T01:12:31.023Z,16.82
2023-01-01T01:13:31.025Z,16.73
2023-01-01T01:14:31.007Z,16.79
2023-01-01T01:15:31.002Z,16.64
2023-01-01T01:16:31.050Z,16.61
2023-01-01T01:17:30.976Z,16.73
2023-01-01T01:18:30.963Z,16.64
2023-01-01T01:19:30.947Z,16.70
2023-01-01T01:20:30.942Z,16.58
2023-01-01T01:21:30.957Z,16.57
2023-01-01T01:22:30.947Z,16.46
2023-01-01T01:23:32.756Z,16.42
2023-01-01T01:24:30.925Z,16.47
2023-01-01T01:25:30.897Z,16.40
2023-01-01T01:26:30.921Z,16.46
2023-01-01T01:27:30.869Z,16.52
2023-01-01T01:28:30.862Z,16.42
2023-01-01T01:29:30.858Z,16.39
2023-01-01T01:30:30.949Z,16.33
2023-01-01T01:31:30.850Z,16.34
2023-01-01T01:32:30.814Z,16.54
2023-01-01T01:33:30.805Z,16.44
2023-01-01T01:34:30.804Z,16.43
2023-01-01T01:35:30.788Z,16.40
2023-01-01T01:36:30.777Z,16.33
2023-01-01T01:37:30.777Z,16.42
2023-01-01T01:38:30.761Z,16.37
2023-01-01T01:39:30.764Z,16.26
2023-01-01T01:40:30.731Z,16.25
2023-01-01T01:41:30.727Z,16.28
2023-01-01T01:42:30.755Z,16.39
2023-01-01T01:43:30.701Z,16.32
2023-01-01T01:44:30.684Z,16.34
2023-01-01T01:45:33.472Z,16.43
2023-01-01T01:46:30.866Z,16.42
2023-01-01T01:47:30.658Z,16.36
2023-01-01T01:48:30.661Z,16.36
2023-01-01T01:49:30.652Z,16.37
2023-01-01T01:50:30.631Z,16.40
2023-01-01T01:51:30.618Z,16.32
2023-01-01T01:52:30.616Z,16.24
2023-01-01T01:53:30.593Z,16.42
2023-01-01T01:54:30.583Z,16.34
2023-01-01T01:55:30.581Z,16.39
2023-01-01T01:56:30.573Z,16.37
2023-01-01T01:57:30.581Z,16.28
2023-01-01T01:58:30.559Z,16.32
2023-01-01T01:59:30.526Z,16.34
2023-01-01T02:00:30.536Z,16.40
2023-01-01T02:01:30.660Z,16.42
2023-01-01T02:02:30.688Z,16.43
2023-01-01T02:03:30.536Z,16.28
2023-01-01T02:04:30.490Z,16.40
2023-01-01T02:05:30.471Z,16.32
2023-01-01T02:06:30.472Z,16.34
2023-01-01T02:07:30.450Z,16.33
2023-01-01T02:08:30.454Z,16.40
2023-01-01T02:09:30.462Z,16.37
2023-01-01T02:10:30.421Z,16.39
2023-01-01T02:11:30.413Z,16.33
2023-01-01T02:12:30.393Z,16.29
2023-01-01T02:13:30.395Z,16.33
2023-01-01T02:14:30.399Z,16.25
2023-01-01T02:15:30.431Z,16.28
2023-01-01T02:16:30.355Z,16.29
2023-01-01T02:17:35.436Z,16.26
2023-01-01T02:18:31.344Z,16.17
2023-01-01T02:19:30.335Z,16.21
2023-01-01T02:20:30.326Z,16.18
2023-01-01T02:21:30.327Z,16.21
2023-01-01T02:22:30.288Z,16.10
2023-01-01T02:23:30.281Z,16.29
2023-01-01T02:24:30.284Z,16.16
2023-01-01T02:25:30.276Z,16.33
2023-01-01T02:26:30.250Z,16.21
2023-01-01T02:27:30.251Z,16.18
2023-01-01T02:28:30.232Z,16.18
2023-01-01T02:29:30.224Z,16.29
2023-01-01T02:30:30.244Z,16.17
2023-01-01T02:31:30.230Z,16.17
2023-01-01T02:32:30.185Z,16.22
2023-01-01T02:33:30.179Z,16.24
2023-01-01T02:34:30.189Z,16.26
2023-01-01T02:35:30.170Z,16.25
2023-01-01T02:36:30.144Z,16.24
2023-01-01T02:37:30.136Z,16.21
2023-01-01T02:38:30.153Z,16.21
2023-01-01T02:39:30.130Z,16.13
2023-01-01T02:40:30.119Z,16.09
2023-01-01T02:41:30.097Z,16.17
2023-01-01T02:42:30.087Z,16.03
2023-01-01T02:43:30.075Z,16.02
2023-01-01T02:44:30.084Z,15.96
2023-01-01T02:45:30.042Z,15.85
2023-01-01T02:46:30.078Z,15.83
2023-01-01T02:47:30.032Z,15.80
2023-01-01T02:48:30.038Z,15.77
2023-01-01T02:49:30.021Z,15.76
2023-01-01T02:50:30.010Z,15.70
2023-01-01T02:51:29.993Z,15.63
2023-01-01T02:52:29.985Z,15.65
2023-01-01T02:53:29.977Z,15.60
2023-01-01T02:54:29.989Z,15.60
2023-01-01T02:55:29.958Z,15.58
2023-01-01T02:56:29.927Z,15.56
2023-01-01T02:57:29.937Z,15.48
2023-01-01T02:58:29.959Z,15.51
2023-01-01T02:59:29.919Z,15.48
2023-01-01T03:00:29.913Z,15.65
2023-01-01T03:01:30.055Z,15.54
2023-01-01T03:02:30.051Z,15.65
2023-01-01T03:03:29.927Z,15.51
2023-01-01T03:04:29.887Z,15.52
2023-01-01T03:05:29.831Z,15.44
2023-01-01T03:06:29.843Z,15.41
2023-01-01T03:07:29.833Z,15.51
2023-01-01T03:08:29.807Z,15.52
2023-01-01T03:09:29.789Z,15.44
2023-01-01T03:10:29.787Z,15.40
2023-01-01T03:11:29.775Z,15.44
2023-01-01T03:12:29.775Z,15.40
2023-01-01T03:13:29.767Z,15.27
2023-01-01T03:14:29.749Z,15.33
2023-01-01T03:15:29.768Z,15.29
2023-01-01T03:16:29.718Z,15.33
2023-01-01T03:17:29.699Z,15.26
2023-01-01T03:18:29.726Z,15.29
2023-01-01T03:19:29.695Z,15.29
2023-01-01T03:20:29.687Z,15.32
2023-01-01T03:21:29.666Z,15.32
2023-01-01T03:22:29.650Z,15.35
2023-01-01T03:23:29.648Z,15.33
2023-01-01T03:24:29.628Z,15.25
2023-01-01T03:25:29.626Z,15.32
2023-01-01T03:26:29.630Z,15.36
2023-01-01T03:27:29.602Z,15.33
2023-01-01T03:28:29.597Z,15.23
2023-01-01T03:29:29.585Z,15.23
2023-01-01T03:30:29.577Z,15.25
2023-01-01T03:31:29.603Z,15.15
2023-01-01T03:32:29.546Z,15.14
2023-01-01T03:33:29.537Z,15.17
2023-01-01T03:34:29.550Z,15.07
2023-01-01T03:35:29.525Z,14.93
2023-01-01T03:36:29.536Z,14.96
2023-01-01T03:37:29.500Z,15.04
2023-01-01T03:38:29.489Z,14.96
2023-01-01T03:39:29.479Z,14.89
2023-01-01T03:40:29.466Z,14.93
2023-01-01T03:41:29.469Z,14.99
2023-01-01T03:42:29.457Z,14.97
2023-01-01T03:43:29.436Z,14.97
2023-01-01T03:44:29.422Z,15.01
2023-01-01T03:45:29.414Z,14.96
2023-01-01T03:46:29.494Z,15.01
2023-01-01T03:47:29.421Z,14.89
2023-01-01T03:48:29.381Z,14.82
2023-01-01T03:49:29.361Z,14.86
2023-01-01T03:50:29.369Z,14.83
2023-01-01T03:51:29.341Z,14.85
2023-01-01T03:52:29.332Z,14.86
2023-01-01T03:53:29.334Z,14.79
2023-01-01T03:54:29.323Z,14.87
2023-01-01T03:55:29.309Z,14.87
2023-01-01T03:56:29.284Z,14.86
2023-01-01T03:57:29.288Z,14.67
2023-01-01T03:58:29.278Z,14.79
2023-01-01T03:59:29.274Z,14.73
2023-01-01T04:00:29.251Z,14.78
2023-01-01T04:01:29.384Z,14.73
2023-01-01T04:02:29.295Z,14.73
2023-01-01T04:03:29.278Z,14.69
2023-01-01T04:04:29.205Z,14.67
2023-01-01T04:05:29.203Z,14.66
2023-01-01T04:06:29.218Z,14.78
2023-01-01T04:07:29.173Z,14.78
2023-01-01T04:08:29.174Z,14.74
2023-01-01T04:09:29.163Z,14.71
2023-01-01T04:10:29.153Z,14.77
2023-01-01T04:11:29.140Z,14.73
2023-01-01T04:12:29.130Z,14.83
2023-01-01T04:13:29.112Z,14.77
2023-01-01T04:14:29.122Z,14.78
2023-01-01T04:15:29.104Z,14.67
2023-01-01T04:16:29.186Z,14.59
2023-01-01T04:17:29.077Z,14.58
2023-01-01T04:18:29.066Z,14.59
2023-01-01T04:19:29.068Z,14.53
2023-01-01T04:20:29.051Z,14.58
2023-01-01T04:21:29.035Z,14.59
2023-01-01T04:22:29.045Z,14.53
2023-01-01T04:23:29.010Z,14.55
2023-01-01T04:24:28.997Z,14.63
2023-01-01T04:25:29.005Z,14.67
2023-01-01T04:26:28.991Z,14.58
2023-01-01T04:27:28.977Z,14.64
2023-01-01T04:28:28.956Z,14.63
2023-01-01T04:29:28.942Z,14.59
2023-01-01T04:30:28.958Z,14.64
2023-01-01T04:31:28.955Z,14.58
2023-01-01T04:32:28.922Z,14.61
2023-01-01T04:33:28.909Z,14.52
2023-01-01T04:34:28.905Z,14.64
2023-01-01T04:35:28.879Z,14.63
2023-01-01T04:36:28.884Z,14.59
2023-01-01T04:37:28.872Z,14.58
2023-01-01T04:38:28.902Z,14.58
2023-01-01T04:39:28.852Z,14.53
2023-01-01T04:40:28.825Z,14.61
2023-01-01T04:41:28.821Z,14.67
2023-01-01T04:42:28.805Z,14.79
2023-01-01T04:43:28.800Z,14.74
2023-01-01T04:44:28.794Z,14.87
2023-01-01T04:45:28.883Z,14.83
2023-01-01T04:46:28.781Z,14.87
2023-01-01T04:47:28.788Z,14.85
2023-01-01T04:48:28.754Z,14.86
2023-01-01T04:49:28.747Z,14.92
2023-01-01T04:50:28.721Z,14.99
2023-01-01T04:51:28.711Z,14.99
2023-01-01T04:52:28.731Z,14.96
2023-01-01T04:53:28.714Z,15.03
2023-01-01T04:54:28.709Z,14.99
2023-01-01T04:55:28.669Z,14.97
2023-01-01T04:56:28.665Z,14.97
2023-01-01T04:57:28.655Z,15.05
2023-01-01T04:58:28.645Z,14.99
2023-01-01T04:59:28.632Z,15.03
2023-01-01T05:00:28.622Z,14.97
2023-01-01T05:01:28.776Z,14.97
2023-01-01T05:02:28.762Z,15.01
2023-01-01T05:03:28.582Z,15.01
2023-01-01T05:04:28.601Z,14.97
2023-01-01T05:05:28.582Z,15.01
2023-01-01T05:06:28.568Z,15.04
2023-01-01T05:07:28.539Z,14.95
2023-01-01T05:08:28.531Z,15.11
2023-01-01T05:09:28.530Z,15.03
2023-01-01T05:10:28.549Z,15.15
2023-01-01T05:11:28.508Z,15.04
2023-01-01T05:12:28.523Z,15.05
2023-01-01T05:13:28.481Z,15.17
2023-01-01T05:14:28.483Z,15.11
2023-01-01T05:15:28.470Z,15.08
2023-01-01T05:16:28.527Z,15.11
2023-01-01T05:17:28.440Z,15.11
2023-01-01T05:18:28.428Z,15.10
2023-01-01T05:19:28.424Z,15.12
2023-01-01T05:20:28.413Z,15.11
2023-01-01T05:21:28.438Z,15.14
2023-01-01T05:22:28.397Z,15.15
2023-01-01T05:23:28.377Z,15.12
2023-01-01T05:24:28.365Z,15.07
2023-01-01T05:25:28.357Z,15.14
2023-01-01T05:26:28.361Z,15.07
2023-01-01T05:27:28.369Z,14.97
2023-01-01T05:28:28.335Z,15.14
2023-01-01T05:29:28.315Z,15.12
2023-01-01T05:30:28.304Z,15.10
2023-01-01T05:31:28.319Z,15.10
2023-01-01T05:32:28.281Z,15.14
2023-01-01T05:33:28.274Z,15.15
2023-01-01T05:34:57.667Z,15.20
2023-01-01T05:35:57.655Z,15.15
2023-01-01T05:36:57.638Z,15.11
2023-01-01T05:37:57.632Z,15.19
2023-01-01T05:38:57.643Z,15.20
2023-01-01T05:39:57.619Z,15.10
2023-01-01T05:40:57.625Z,15.23
2023-01-01T05:41:57.622Z,15.23
2023-01-01T05:42:57.602Z,15.30
2023-01-01T05:43:57.591Z,15.27
2023-01-01T05:44:57.554Z,15.25
2023-01-01T05:45:57.595Z,15.22
2023-01-01T05:46:57.536Z,15.23
2023-01-01T05:47:57.520Z,15.22
2023-01-01T05:48:57.534Z,15.26
2023-01-01T05:49:57.508Z,15.26
2023-01-01T05:50:57.496Z,15.22
2023-01-01T05:51:57.482Z,15.25
2023-01-01T05:52:57.474Z,15.29
2023-01-01T05:53:57.484Z,15.33
2023-01-01T05:54:57.487Z,15.22
2023-01-01T05:55:57.442Z,15.19
2023-01-01T05:56:57.428Z,15.19
2023-01-01T05:57:57.438Z,15.10
2023-01-01T05:58:57.421Z,15.07
2023-01-01T05:59:57.392Z,15.11
2023-01-01T06:00:57.414Z,15.15
2023-01-01T06:01:57.540Z,15.22
2023-01-01T06:02:57.391Z,15.25
2023-01-01T06:03:57.424Z,15.25
2023-01-01T06:04:57.359Z,15.19
2023-01-01T06:05:57.350Z,15.23
2023-01-01T06:06:57.334Z,15.30
2023-01-01T06:07:57.315Z,15.29
2023-01-01T06:08:57.301Z,15.30
2023-01-01T06:09:57.303Z,15.29
2023-01-01T06:10:57.298Z,15.32
2023-01-01T06:11:57.279Z,15.26
2023-01-01T06:12:57.275Z,15.33
2023-01-01T06:13:57.285Z,15.19
2023-01-01T06:14:57.232Z,15.20
2023-01-01T06:15:57.238Z,15.22
2023-01-01T06:16:57.273Z,15.25
2023-01-01T06:17:57.214Z,15.30
2023-01-01T06:18:57.199Z,15.30
2023-01-01T06:19:57.193Z,15.29
2023-01-01T06:20:57.185Z,15.41
2023-01-01T06:21:57.182Z,15.43
2023-01-01T06:22:57.179Z,15.41
2023-01-01T06:23:57.145Z,15.48
2023-01-01T06:24:57.126Z,15.48
2023-01-01T06:25:57.119Z,15.56
2023-01-01T06:26:57.103Z,15.59
2023-01-01T06:27:57.104Z,15.59
2023-01-01T06:28:57.110Z,15.54
2023-01-01T06:29:57.097Z,15.60
2023-01-01T06:30:57.123Z,15.51
2023-01-01T06:31:57.052Z,15.51
2023-01-01T06:32:57.043Z,15.51
2023-01-01T06:33:57.037Z,15.45
2023-01-01T06:34:57.032Z,15.30
2023-01-01T06:35:57.023Z,15.33
2023-01-01T06:37:01.457Z,15.32
2023-01-01T06:37:57.995Z,15.36
2023-01-01T06:38:56.987Z,15.35
2023-01-01T06:39:56.973Z,15.30
2023-01-01T06:40:56.972Z,15.41
2023-01-01T06:41:56.949Z,15.36
2023-01-01T06:42:56.953Z,15.45
2023-01-01T06:43:56.936Z,15.50
2023-01-01T06:44:56.942Z,15.47
2023-01-01T06:45:56.940Z,15.60
2023-01-01T06:46:56.889Z,15.69
2023-01-01T06:47:56.887Z,15.73
2023-01-01T06:48:56.879Z,15.66
2023-01-01T06:49:56.858Z,15.62
2023-01-01T06:50:56.871Z,15.54
2023-01-01T06:51:56.852Z,15.54
2023-01-01T06:52:56.825Z,15.43
2023-01-01T06:53:56.813Z,15.45
2023-01-01T06:54:56.818Z,15.47
2023-01-01T06:55:57.525Z,15.45
2023-01-01T06:56:56.802Z,15.54
2023-01-01T06:57:56.791Z,15.48
2023-01-01T06:58:56.760Z,15.52
2023-01-01T06:59:56.752Z,15.48
2023-01-01T07:00:56.768Z,15.47
2023-01-01T07:01:56.939Z,15.65
2023-01-01T07:02:56.850Z,15.58
2023-01-01T07:03:56.739Z,15.60
2023-01-01T07:04:56.692Z,15.56
2023-01-01T07:05:56.703Z,15.60
2023-01-01T07:06:56.680Z,15.70
2023-01-01T07:07:56.673Z,15.70
2023-01-01T07:08:56.675Z,15.72
2023-01-01T07:09:56.653Z,15.83
2023-01-01T07:10:56.645Z,15.83
2023-01-01T07:11:56.617Z,15.81
2023-01-01T07:12:56.608Z,15.77
2023-01-01T07:13:56.612Z,15.80
2023-01-01T07:14:56.596Z,15.87
2023-01-01T07:15:56.644Z,15.93
2023-01-01T07:16:56.574Z,15.85
2023-01-01T07:17:56.580Z,15.81
2023-01-01T07:18:56.546Z,15.83
2023-01-01T07:19:56.537Z,15.85
2023-01-01T07:20:56.545Z,15.77
2023-01-01T07:21:56.528Z,15.87
2023-01-01T07:22:56.500Z,15.90
2023-01-01T07:23:56.514Z,16.03
2023-01-01T07:24:56.481Z,15.96
2023-01-01T07:25:56.477Z,15.88
2023-01-01T07:26:56.474Z,15.95
2023-01-01T07:27:56.461Z,15.90
2023-01-01T07:29:02.758Z,15.90
2023-01-01T07:29:57.438Z,15.90
2023-01-01T07:30:56.470Z,15.88
2023-01-01T07:31:56.414Z,15.85
2023-01-01T07:32:56.395Z,15.85
2023-01-01T07:33:56.399Z,15.83
2023-01-01T07:34:56.391Z,15.84
2023-01-01T07:35:56.359Z,15.84
2023-01-01T07:36:56.353Z,15.83
2023-01-01T07:37:56.344Z,15.87
2023-01-01T07:38:56.328Z,15.83
2023-01-01T07:39:56.311Z,15.87
2023-01-01T07:40:56.341Z,15.90
2023-01-01T07:41:56.307Z,15.90
2023-01-01T07:42:56.279Z,15.85
2023-01-01T07:43:56.270Z,15.81
2023-01-01T07:44:56.267Z,15.90
2023-01-01T07:45:56.298Z,15.90
2023-01-01T07:46:56.354Z,15.85
2023-01-01T07:47:56.222Z,15.87
2023-01-01T07:48:56.223Z,15.78
2023-01-01T07:49:56.243Z,15.77
2023-01-01T07:50:56.212Z,15.77
2023-01-01T07:51:56.187Z,15.73
2023-01-01T07:52:56.191Z,15.76
2023-01-01T07:54:00.682Z,15.76
2023-01-01T07:54:57.172Z,15.80
2023-01-01T07:55:56.138Z,15.76
2023-01-01T07:56:56.133Z,15.70
2023-01-01T07:57:56.133Z,15.73
2023-01-01T07:58:56.117Z,15.85
2023-01-01T07:59:56.101Z,15.87
2023-01-01T08:00:56.112Z,15.81
2023-01-01T08:01:56.145Z,15.95
2023-01-01T08:02:56.308Z,15.87
2023-01-01T08:03:56.060Z,15.81
2023-01-01T08:04:56.087Z,15.78
2023-01-01T08:05:56.054Z,15.85
2023-01-01T08:06:56.025Z,15.87
2023-01-01T08:07:56.016Z,15.88
2023-01-01T08:08:56.023Z,15.85
2023-01-01T08:09:56.001Z,15.87
2023-01-01T08:11:00.289Z,15.84
2023-01-01T08:11:56.979Z,15.81
2023-01-01T08:12:55.953Z,15.83
2023-01-01T08:13:55.988Z,15.81
2023-01-01T08:14:55.949Z,15.83
2023-01-01T08:15:56.008Z,15.88
2023-01-01T08:16:55.914Z,15.90
2023-01-01T08:17:55.897Z,15.90
2023-01-01T08:18:55.906Z,15.90
2023-01-01T08:19:55.879Z,15.90
2023-01-01T08:20:55.865Z,15.87
2023-01-01T08:21:55.892Z,15.85
2023-01-01T08:22:58.110Z,15.93
2023-01-01T08:23:56.842Z,15.85
2023-01-01T08:24:55.826Z,15.87
2023-01-01T08:25:55.821Z,15.84
2023-01-01T08:26:55.802Z,15.91
2023-01-01T08:27:55.808Z,15.90
2023-01-01T08:28:57.522Z,15.93
2023-01-01T08:29:55.779Z,15.96
2023-01-01T08:30:55.798Z,15.88
2023-01-01T08:31:55.759Z,15.87
2023-01-01T08:32:55.741Z,15.87
2023-01-01T08:33:55.736Z,15.85
2023-01-01T08:34:55.711Z,15.85
2023-01-01T08:35:55.731Z,15.93
2023-01-01T08:36:55.696Z,15.87
2023-01-01T08:37:55.716Z,15.93
2023-01-01T08:38:55.670Z,15.88
2023-01-01T08:39:55.661Z,15.90
2023-01-01T08:40:55.667Z,15.81
2023-01-01T08:41:55.640Z,15.85
2023-01-01T08:42:55.650Z,15.95
2023-01-01T08:43:55.626Z,15.96
2023-01-01T08:44:55.615Z,16.02
2023-01-01T08:45:55.594Z,15.99
2023-01-01T08:46:55.630Z,15.96
2023-01-01T08:47:55.596Z,15.96
2023-01-01T08:48:55.560Z,15.99
2023-01-01T08:49:55.583Z,15.93
2023-01-01T08:50:55.553Z,15.85
2023-01-01T08:51:55.537Z,15.93
2023-01-01T08:52:55.545Z,15.90
2023-01-01T08:53:55.569Z,15.85
2023-01-01T08:55:04.309Z,15.85
2023-01-01T08:56:03.068Z,15.85
2023-01-01T08:57:03.013Z,15.88
2023-01-01T08:58:03.000Z,15.93
2023-01-01T08:59:01.803Z,15.84
2023-01-01T08:59:56.463Z,15.80
2023-01-01T09:00:55.437Z,15.81
2023-01-01T09:01:55.828Z,15.87
2023-01-01T09:02:55.502Z,15.90
2023-01-01T09:03:55.412Z,15.88
2023-01-01T09:04:55.749Z,15.85
2023-01-01T09:05:55.398Z,15.95
2023-01-01T09:06:55.367Z,15.95
2023-01-01T09:07:55.364Z,15.95
2023-01-01T09:09:02.897Z,15.96
2023-01-01T09:10:02.879Z,16.02
2023-01-01T09:11:05.022Z,15.98
2023-01-01T09:12:02.849Z,16.00
2023-01-01T09:12:55.301Z,15.96
2023-01-01T09:13:55.296Z,15.96
2023-01-01T09:14:55.292Z,15.99
2023-01-01T09:15:55.344Z,15.98
2023-01-01T09:16:55.264Z,15.98
2023-01-01T09:17:55.252Z,15.99
2023-01-01T09:18:55.249Z,16.03
2023-01-01T09:19:55.295Z,15.98
2023-01-01T09:20:55.232Z,15.99
2023-01-01T09:21:55.217Z,16.06
2023-01-01T09:22:55.204Z,16.13
2023-01-01T09:23:55.180Z,16.08
2023-01-01T09:24:55.194Z,16.05
2023-01-01T09:25:55.921Z,16.14
2023-01-01T09:26:55.512Z,16.18
2023-01-01T09:27:59.838Z,16.22
2023-01-01T09:28:55.352Z,16.18
2023-01-01T09:29:57.393Z,16.33
2023-01-01T09:30:56.363Z,16.36
2023-01-01T09:31:57.453Z,16.37
2023-01-01T09:33:56.142Z,16.47
2023-01-01T09:36:11.173Z,16.36
2023-01-01T09:36:55.293Z,16.49
2023-01-01T09:37:55.100Z,16.43
2023-01-01T09:38:56.022Z,16.46
2023-01-01T09:39:55.145Z,16.44
2023-01-01T09:40:55.121Z,16.44
2023-01-01T09:41:55.044Z,16.51
2023-01-01T09:42:55.018Z,16.39
2023-01-01T09:43:55.028Z,16.40
2023-01-01T09:44:55.008Z,16.46
2023-01-01T09:45:55.097Z,16.46
2023-01-01T09:46:55.078Z,16.37
2023-01-01T09:47:55.033Z,16.42
2023-01-01T09:48:54.950Z,16.40
2023-01-01T09:49:54.922Z,16.47
2023-01-01T09:50:54.952Z,16.37
2023-01-01T09:51:58.110Z,16.47
2023-01-01T09:52:56.608Z,16.37
2023-01-01T09:53:54.951Z,16.51
2023-01-01T09:55:01.799Z,16.47
2023-01-01T09:55:55.911Z,16.42
2023-01-01T09:56:55.025Z,16.57
2023-01-01T09:57:54.916Z,16.67
2023-01-01T09:58:58.039Z,16.62
2023-01-01T09:59:57.594Z,16.67
2023-01-01T10:00:55.669Z,16.65
2023-01-01T10:01:54.927Z,16.61
2023-01-01T10:02:54.860Z,16.49
2023-01-01T10:03:54.852Z,16.61
2023-01-01T10:04:54.790Z,16.57
2023-01-01T10:05:54.809Z,16.57
2023-01-01T10:06:54.782Z,16.62
2023-01-01T10:07:54.812Z,16.62
2023-01-01T10:08:54.778Z,16.62
2023-01-01T10:09:54.755Z,16.67
2023-01-01T10:10:54.745Z,16.69
2023-01-01T10:11:54.900Z,16.61
2023-01-01T10:12:58.878Z,16.62
2023-01-01T10:13:55.713Z,16.70
2023-01-01T10:14:59.743Z,16.52
2023-01-01T10:15:55.742Z,16.57
2023-01-01T10:16:55.957Z,16.59
2023-01-01T10:17:55.083Z,16.59
2023-01-01T10:18:58.517Z,16.49
2023-01-01T10:19:54.755Z,16.57
2023-01-01T10:20:54.633Z,16.52
2023-01-01T10:21:54.666Z,16.61
2023-01-01T10:22:54.634Z,16.62
2023-01-01T10:23:54.630Z,16.61
2023-01-01T10:24:54.618Z,16.74
2023-01-01T10:25:54.574Z,16.58
2023-01-01T10:26:55.115Z,16.62
2023-01-01T10:27:59.406Z,16.69
2023-01-01T10:28:55.520Z,16.57
2023-01-01T10:29:59.559Z,16.64
2023-01-01T10:30:55.520Z,16.57
2023-01-01T10:31:54.652Z,16.62
2023-01-01T10:32:54.565Z,16.70
2023-01-01T10:33:55.677Z,16.67
2023-01-01T10:35:01.702Z,16.58
2023-01-01T10:35:57.895Z,16.62
2023-01-01T10:37:00.504Z,16.57
2023-01-01T10:37:56.015Z,16.72
2023-01-01T10:38:54.495Z,16.65
2023-01-01T10:40:00.309Z,16.67
2023-01-01T10:41:02.841Z,16.58
2023-01-01T10:41:54.459Z,16.57
2023-01-01T10:42:54.469Z,16.59
2023-01-01T10:43:54.390Z,16.57
2023-01-01T10:44:54.438Z,16.55
2023-01-01T10:46:05.761Z,16.55
2023-01-01T10:47:11.726Z,16.61
2023-01-01T10:47:55.521Z,16.59
2023-01-01T10:48:55.050Z,16.61
2023-01-01T10:49:54.442Z,16.58
2023-01-01T10:50:54.344Z,16.65
2023-01-01T10:51:54.553Z,16.61
2023-01-01T10:52:54.356Z,16.57
2023-01-01T10:53:54.502Z,16.55
2023-01-01T10:54:54.437Z,16.55
2023-01-01T10:55:55.010Z,16.58
2023-01-01T10:56:55.123Z,16.49
2023-01-01T10:57:54.317Z,16.47
2023-01-01T10:58:54.336Z,16.43
2023-01-01T10:59:54.765Z,16.37
2023-01-01T11:00:54.256Z,16.47
2023-01-01T11:02:11.106Z,16.40
2023-01-01T11:03:13.825Z,16.43
2023-01-01T11:03:55.047Z,16.37
2023-01-01T11:04:54.188Z,16.36
2023-01-01T11:05:54.117Z,16.39
2023-01-01T11:06:54.159Z,16.36
2023-01-01T11:07:54.620Z,16.40
2023-01-01T11:09:01.511Z,16.40
2023-01-01T11:11:05.434Z,16.36
2023-01-01T11:12:11.907Z,16.37
2023-01-01T11:13:06.884Z,16.36
2023-01-01T11:14:05.410Z,16.33
2023-01-01T11:15:05.381Z,16.32
2023-01-01T11:16:05.394Z,16.34
2023-01-01T11:17:05.415Z,16.22
2023-01-01T11:18:05.375Z,16.33
2023-01-01T11:19:05.397Z,16.29
2023-01-01T11:20:05.350Z,16.39
2023-01-01T11:21:05.316Z,16.36
2023-01-01T11:22:05.317Z,16.44
2023-01-01T11:23:05.320Z,16.44
2023-01-01T11:24:06.333Z,16.49
2023-01-01T11:25:06.252Z,16.51
2023-01-01T11:26:06.301Z,16.49
2023-01-01T11:27:05.410Z,16.55
2023-01-01T11:28:05.388Z,16.58
2023-01-01T11:29:06.071Z,16.59
2023-01-01T11:30:05.231Z,16.55
2023-01-01T11:31:05.305Z,16.59
2023-01-01T11:32:05.224Z,16.52
2023-01-01T11:33:05.192Z,16.67
2023-01-01T11:34:05.182Z,16.57
2023-01-01T11:35:05.176Z,16.54
2023-01-01T11:36:05.210Z,16.59
2023-01-01T11:37:05.165Z,16.69
2023-01-01T11:38:05.152Z,16.65
2023-01-01T11:39:05.142Z,16.58
2023-01-01T11:40:05.119Z,16.70
2023-01-01T11:41:05.121Z,16.59
2023-01-01T11:42:05.116Z,16.57
2023-01-01T11:43:05.098Z,16.64
2023-01-01T11:44:05.086Z,16.54
2023-01-01T11:45:05.084Z,16.64
2023-01-01T11:46:05.119Z,16.59
2023-01-01T11:47:05.086Z,16.54
2023-01-01T11:48:05.068Z,16.51
2023-01-01T11:49:05.032Z,16.65
2023-01-01T11:50:05.021Z,16.61
2023-01-01T11:51:05.018Z,16.67
2023-01-01T11:52:04.991Z,16.58
2023-01-01T11:53:04.988Z,16.64
2023-01-01T11:54:04.985Z,16.72
2023-01-01T11:55:06.440Z,16.69
2023-01-01T11:56:05.633Z,16.76
2023-01-01T11:57:04.940Z,16.80
2023-01-01T11:58:04.939Z,16.84
2023-01-01T11:59:05.887Z,16.72
2023-01-01T12:00:04.930Z,16.77
2023-01-01T12:01:04.957Z,16.72
2023-01-01T12:02:04.884Z,16.70
2023-01-01T12:03:04.893Z,16.74
2023-01-01T12:04:04.942Z,16.61
2023-01-01T12:05:04.858Z,16.69
2023-01-01T12:06:04.881Z,16.67
2023-01-01T12:07:04.841Z,16.62
2023-01-01T12:08:04.825Z,16.65
2023-01-01T12:09:04.831Z,16.65
2023-01-01T12:10:04.973Z,16.57
2023-01-01T12:11:04.792Z,16.57
2023-01-01T12:12:04.811Z,16.65
2023-01-01T12:13:04.761Z,16.58
2023-01-01T12:14:04.850Z,16.58
2023-01-01T12:15:04.785Z,16.55
2023-01-01T12:16:04.783Z,16.54
2023-01-01T12:17:04.740Z,16.74
2023-01-01T12:18:04.746Z,16.70
2023-01-01T12:19:04.709Z,16.65
2023-01-01T12:20:04.721Z,16.61
2023-01-01T12:21:04.691Z,16.70
2023-01-01T12:22:04.671Z,16.65
2023-01-01T12:23:04.675Z,16.67
2023-01-01T12:24:04.763Z,16.55
2023-01-01T12:25:04.642Z,16.59
2023-01-01T12:26:04.623Z,16.69
2023-01-01T12:27:10.474Z,16.58
2023-01-01T12:28:05.623Z,16.58
2023-01-01T12:29:04.599Z,16.62
2023-01-01T12:30:04.584Z,16.65
2023-01-01T12:31:04.678Z,16.52
2023-01-01T12:32:04.559Z,16.46
2023-01-01T12:33:08.158Z,16.52
2023-01-01T12:34:04.589Z,16.54
2023-01-01T12:35:04.532Z,16.49
2023-01-01T12:36:04.570Z,16.46
2023-01-01T12:37:04.522Z,16.54
2023-01-01T12:38:04.512Z,16.52
2023-01-01T12:39:04.521Z,16.51
2023-01-01T12:40:08.987Z,16.49
2023-01-01T12:41:19.978Z,16.49
2023-01-01T12:42:04.469Z,16.40
2023-01-01T12:43:06.875Z,16.33
2023-01-01T12:44:05.438Z,16.43
2023-01-01T12:45:04.880Z,16.43
2023-01-01T12:46:04.428Z,16.37
2023-01-01T12:47:04.407Z,16.29
2023-01-01T12:48:05.972Z,16.33
2023-01-01T12:49:04.370Z,16.28
2023-01-01T12:50:04.396Z,16.37
2023-01-01T12:51:05.648Z,16.36
2023-01-01T12:52:04.409Z,16.33
2023-01-01T12:53:04.333Z,16.36
2023-01-01T12:54:04.415Z,16.42
2023-01-01T12:55:04.336Z,16.42
2023-01-01T12:56:04.333Z,16.43